Time;durP1;ratioP1;P1;durP2;ratioP2;P2;SDS_P1;SDS_P2;PMS_P1;PMS_P2;Temp;Humidity;BMP_temperature;BMP_pressure;BME280_temperature;BME280_humidity;BME280_pressure;Samples;Min_cycle;Max_cycle;Signal;HPM_P1;HPM_P2
2023/06/03 00:00:10;;;;;;;13.85;5.75;;;;;;;;;;4993629;28;20065;-77
2023/06/03 00:02:35;;;;;;;11.55;6.60;;;;;;;;;;4993752;28;20037;-77
2023/06/03 00:05:01;;;;;;;11.38;6.28;;;;;;;;;;4993526;28;20037;-77
2023/06/03 00:07:27;;;;;;;11.93;6.32;;;;;;;;;;4993612;28;20049;-77
2023/06/03 00:09:52;;;;;;;9.88;5.82;;;;;;;;;;4992861;28;20042;-77
2023/06/03 00:12:17;;;;;;;13.07;6.55;;;;;;;;;;4992311;28;20030;-77
2023/06/03 00:14:43;;;;;;;18.42;5.80;;;;;;;;;;4993071;28;20029;-77
2023/06/03 00:17:11;;;;;;;9.82;6.68;;;;;;;;;;4992311;28;20125;-77
2023/06/03 00:19:37;;;;;;;12.60;6.97;;;;;;;;;;4992556;28;20030;-77
2023/06/03 00:22:02;;;;;;;16.08;6.78;;;;;;;;;;4993274;28;20026;-77
2023/06/03 00:24:27;;;;;;;15.07;6.18;;;;;;;;;;4993347;28;20042;-77
2023/06/03 00:26:53;;;;;;;14.55;7.10;;;;;;;;;;4992719;28;20026;-77
2023/06/03 00:29:19;;;;;;;12.05;7.00;;;;;;;;;;5005960;28;20026;-77
2023/06/03 00:31:45;;;;;;;9.05;6.22;;;;;;;;;;4992577;28;20049;-77
2023/06/03 00:34:10;;;;;;;11.07;6.32;;;;;;;;;;4993104;28;20541;-77
2023/06/03 00:36:35;;;;;;;13.50;6.38;;;;;;;;;;4993271;28;20113;-77
2023/06/03 00:39:01;;;;;;;10.80;6.30;;;;;;;;;;4992861;28;20105;-77
2023/06/03 00:41:26;;;;;;;12.75;6.60;;;;;;;;;;5007904;28;20031;-77
2023/06/03 00:43:52;;;;;;;11.48;6.03;;;;;;;;;;4992450;28;20034;-77
2023/06/03 00:46:19;;;;;;;11.93;6.85;;;;;;;;;;4988327;28;20455;-78
2023/06/03 00:48:44;;;;;;;15.65;7.15;;;;;;;;;;4995509;28;20034;-77
2023/06/03 00:51:10;;;;;;;12.13;7.28;;;;;;;;;;4992448;28;20604;-77
2023/06/03 00:53:36;;;;;;;10.75;7.57;;;;;;;;;;4993286;28;20127;-77
2023/06/03 00:56:01;;;;;;;15.25;7.30;;;;;;;;;;4992496;28;20026;-77
2023/06/03 00:58:27;;;;;;;13.80;6.93;;;;;;;;;;4992491;28;20034;-77
2023/06/03 01:00:53;;;;;;;12.55;7.32;;;;;;;;;;4992707;28;20038;-77
2023/06/03 01:03:19;;;;;;;13.15;7.30;;;;;;;;;;4991907;28;20018;-77
2023/06/03 01:05:48;;;;;;;9.88;6.65;;;;;;;;;;4993207;28;20101;-77
2023/06/03 01:08:55;;;;;;;15.75;7.55;;;;;;;;;;5007431;28;20404;-79
2023/06/03 01:11:39;;;;;;;13.48;7.10;;;;;;;;;;4954334;28;20053;-77
2023/06/03 01:14:16;;;;;;;15.07;7.50;;;;;;;;;;4999806;28;20034;-78
2023/06/03 01:16:44;;;;;;;19.83;6.82;;;;;;;;;;4992320;28;20165;-77
2023/06/03 01:19:34;;;;;;;15.57;7.90;;;;;;;;;;4990665;28;20030;-77
2023/06/03 01:22:02;;;;;;;17.38;7.80;;;;;;;;;;4991504;28;21657;-77
2023/06/03 01:24:30;;;;;;;17.33;8.35;;;;;;;;;;4991420;28;20393;-77
2023/06/03 01:26:56;;;;;;;14.55;7.22;;;;;;;;;;4993221;28;20038;-79
2023/06/03 01:29:21;;;;;;;15.18;7.22;;;;;;;;;;4987176;28;20398;-79
2023/06/03 01:31:47;;;;;;;18.38;7.63;;;;;;;;;;4991769;28;20046;-79
2023/06/03 01:34:13;;;;;;;16.65;7.35;;;;;;;;;;4994586;28;20036;-79
2023/06/03 01:36:39;;;;;;;16.60;7.97;;;;;;;;;;5008777;28;20116;-79
2023/06/03 01:39:04;;;;;;;9.32;7.00;;;;;;;;;;4987534;28;20031;-79
2023/06/03 01:41:31;;;;;;;14.90;7.57;;;;;;;;;;4994991;28;20014;-79
2023/06/03 01:43:57;;;;;;;11.50;7.70;;;;;;;;;;4985770;28;20532;-79
2023/06/03 01:46:26;;;;;;;17.67;7.93;;;;;;;;;;4994244;28;20121;-77
2023/06/03 01:48:51;;;;;;;15.43;8.20;;;;;;;;;;4992776;28;20035;-79
2023/06/03 01:51:16;;;;;;;17.10;7.88;;;;;;;;;;5011036;28;20022;-77
2023/06/03 01:53:42;;;;;;;12.75;7.50;;;;;;;;;;4995930;28;20030;-77
2023/06/03 01:56:07;;;;;;;17.23;8.77;;;;;;;;;;4996859;28;20513;-77
2023/06/03 01:58:32;;;;;;;14.23;8.30;;;;;;;;;;4996516;28;20034;-77
2023/06/03 02:00:58;;;;;;;19.52;8.70;;;;;;;;;;4996467;28;20048;-78
2023/06/03 02:03:23;;;;;;;15.80;8.48;;;;;;;;;;4996219;28;20485;-77
2023/06/03 02:05:48;;;;;;;18.08;9.00;;;;;;;;;;4996791;28;20050;-78
2023/06/03 02:08:13;;;;;;;13.65;8.20;;;;;;;;;;4994894;28;20097;-77
2023/06/03 02:10:39;;;;;;;9.80;7.38;;;;;;;;;;4994299;28;20122;-80
2023/06/03 02:13:05;;;;;;;13.10;8.10;;;;;;;;;;4993590;28;20145;-77
2023/06/03 02:15:30;;;;;;;14.20;8.30;;;;;;;;;;4995717;28;20465;-78
2023/06/03 02:17:56;;;;;;;15.02;8.15;;;;;;;;;;4997049;28;20030;-78
2023/06/03 02:20:22;;;;;;;15.77;8.85;;;;;;;;;;4996565;28;20018;-78
2023/06/03 02:22:48;;;;;;;20.30;8.07;;;;;;;;;;5008926;28;20031;-77
2023/06/03 02:25:13;;;;;;;18.23;8.40;;;;;;;;;;4994512;28;20026;-77
2023/06/03 02:27:38;;;;;;;18.30;9.80;;;;;;;;;;4990573;28;20133;-77
2023/06/03 02:30:05;;;;;;;13.35;8.73;;;;;;;;;;4994184;28;20109;-78
2023/06/03 02:32:30;;;;;;;15.40;9.70;;;;;;;;;;4995787;28;20082;-78
2023/06/03 02:34:55;;;;;;;18.30;9.05;;;;;;;;;;4996114;28;20133;-78
2023/06/03 02:37:22;;;;;;;21.08;9.88;;;;;;;;;;4994020;28;20031;-77
2023/06/03 02:39:47;;;;;;;19.92;9.43;;;;;;;;;;4993441;28;20039;-78
2023/06/03 02:42:12;;;;;;;19.25;9.23;;;;;;;;;;4995637;28;20026;-78
2023/06/03 02:44:38;;;;;;;16.73;9.13;;;;;;;;;;4989483;28;20035;-78
2023/06/03 02:47:04;;;;;;;17.42;10.48;;;;;;;;;;4996295;28;20062;-77
2023/06/03 02:49:29;;;;;;;17.38;9.63;;;;;;;;;;4996845;28;20026;-77
2023/06/03 02:51:55;;;;;;;23.08;10.15;;;;;;;;;;4996946;28;20354;-78
2023/06/03 02:54:20;;;;;;;15.15;9.70;;;;;;;;;;4997190;28;20465;-78
2023/06/03 02:56:46;;;;;;;13.02;8.40;;;;;;;;;;4997761;28;20029;-78
2023/06/03 02:59:11;;;;;;;17.33;8.93;;;;;;;;;;5011823;28;20639;-78
2023/06/03 03:01:37;;;;;;;18.45;8.75;;;;;;;;;;4990687;28;20098;-78
2023/06/03 03:04:03;;;;;;;14.85;8.70;;;;;;;;;;4994043;28;20524;-78
2023/06/03 03:06:29;;;;;;;18.20;9.88;;;;;;;;;;4995787;28;20031;-78
2023/06/03 03:08:55;;;;;;;15.48;8.98;;;;;;;;;;4996058;28;20033;-79
2023/06/03 03:11:20;;;;;;;15.32;9.23;;;;;;;;;;4996675;28;20030;-79
2023/06/03 03:13:46;;;;;;;15.93;9.20;;;;;;;;;;4996967;28;20481;-79
2023/06/03 03:16:12;;;;;;;19.58;9.65;;;;;;;;;;4997305;28;20026;-79
2023/06/03 03:18:38;;;;;;;23.13;9.32;;;;;;;;;;4995747;28;20493;-79
2023/06/03 03:21:04;;;;;;;16.48;10.65;;;;;;;;;;4995491;28;20022;-79
2023/06/03 03:23:30;;;;;;;17.35;9.98;;;;;;;;;;4993205;28;20038;-79
2023/06/03 03:26:02;;;;;;;17.63;10.48;;;;;;;;;;4994758;28;20042;-79
2023/06/03 03:28:28;;;;;;;17.52;9.80;;;;;;;;;;4991681;28;20510;-79
2023/06/03 03:30:55;;;;;;;19.63;9.52;;;;;;;;;;4979568;28;20046;-79
2023/06/03 03:33:21;;;;;;;18.20;10.00;;;;;;;;;;5001587;28;20370;-79
2023/06/03 03:35:48;;;;;;;18.52;10.32;;;;;;;;;;4985880;28;20109;-79
2023/06/03 03:38:14;;;;;;;17.73;8.93;;;;;;;;;;4983775;28;20366;-79
2023/06/03 03:40:39;;;;;;;17.33;8.90;;;;;;;;;;4991735;28;20100;-79
2023/06/03 03:43:13;;;;;;;18.10;9.55;;;;;;;;;;4988350;28;20709;-79
2023/06/03 03:45:38;;;;;;;18.48;9.38;;;;;;;;;;5006817;28;20038;-79
2023/06/03 03:48:06;;;;;;;15.05;8.30;;;;;;;;;;4985586;28;20022;-79
2023/06/03 03:50:40;;;;;;;22.80;10.32;;;;;;;;;;4995286;28;20027;-79
2023/06/03 03:53:14;;;;;;;20.73;10.43;;;;;;;;;;4994092;28;20038;-79
2023/06/03 03:55:53;;;;;;;15.68;10.38;;;;;;;;;;4982499;28;20047;-79
2023/06/03 03:58:27;;;;;;;16.40;10.13;;;;;;;;;;4985894;28;20066;-79
2023/06/03 04:01:01;;;;;;;23.85;10.75;;;;;;;;;;4984801;28;20472;-80
2023/06/03 04:03:29;;;;;;;19.23;10.20;;;;;;;;;;4983844;28;20039;-79
2023/06/03 04:05:55;;;;;;;20.80;10.63;;;;;;;;;;4979262;28;20025;-79
2023/06/03 04:08:45;;;;;;;15.65;10.90;;;;;;;;;;4983893;28;20165;-79
2023/06/03 04:11:19;;;;;;;26.38;10.25;;;;;;;;;;4975877;28;20157;-79
2023/06/03 04:13:45;;;;;;;15.15;9.48;;;;;;;;;;4989901;28;20042;-79
2023/06/03 04:16:12;;;;;;;13.07;8.93;;;;;;;;;;4984801;28;20038;-79
2023/06/03 04:18:41;;;;;;;26.00;12.10;;;;;;;;;;4987581;28;20793;-80
2023/06/03 04:21:17;;;;;;;13.15;9.07;;;;;;;;;;4987699;28;20018;-79
2023/06/03 04:23:43;;;;;;;11.52;8.48;;;;;;;;;;4989129;28;20054;-79
2023/06/03 04:26:11;;;;;;;13.15;9.35;;;;;;;;;;4989055;28;20038;-79
2023/06/03 04:28:39;;;;;;;11.75;8.82;;;;;;;;;;4988758;28;20042;-79
2023/06/03 04:31:04;;;;;;;18.98;9.02;;;;;;;;;;4992560;28;20049;-79
2023/06/03 04:33:30;;;;;;;17.73;9.25;;;;;;;;;;4991859;28;20113;-79
2023/06/03 04:35:55;;;;;;;15.38;7.70;;;;;;;;;;4991460;28;20022;-79
2023/06/03 04:38:21;;;;;;;13.82;8.02;;;;;;;;;;4993288;28;20054;-79
2023/06/03 04:40:46;;;;;;;16.30;8.10;;;;;;;;;;4995034;28;20030;-80
2023/06/03 04:43:14;;;;;;;14.95;7.63;;;;;;;;;;4992955;28;20034;-79
2023/06/03 04:45:39;;;;;;;13.10;7.35;;;;;;;;;;4992993;28;20039;-79
2023/06/03 04:48:05;;;;;;;13.00;8.27;;;;;;;;;;4986336;28;20018;-79
2023/06/03 04:50:34;;;;;;;9.38;6.72;;;;;;;;;;4985294;28;20027;-79
2023/06/03 04:53:00;;;;;;;9.43;6.43;;;;;;;;;;4981234;28;20042;-79
2023/06/03 04:55:25;;;;;;;15.40;7.07;;;;;;;;;;4982228;28;20043;-79
2023/06/03 04:57:52;;;;;;;13.32;5.63;;;;;;;;;;4984589;28;20034;-78
2023/06/03 05:00:19;;;;;;;12.98;5.95;;;;;;;;;;4982735;28;20026;-79
2023/06/03 05:02:55;;;;;;;12.05;6.25;;;;;;;;;;4985891;28;20397;-79
2023/06/03 05:05:24;;;;;;;11.23;6.10;;;;;;;;;;4985765;28;20088;-79
2023/06/03 05:07:50;;;;;;;14.80;7.07;;;;;;;;;;4981088;28;20031;-78
2023/06/03 05:10:16;;;;;;;11.40;5.97;;;;;;;;;;4985419;28;20291;-79
2023/06/03 05:12:41;;;;;;;11.48;6.22;;;;;;;;;;4990766;28;20096;-79
2023/06/03 05:15:07;;;;;;;12.88;7.10;;;;;;;;;;4989344;28;20086;-79
2023/06/03 05:17:33;;;;;;;16.25;6.28;;;;;;;;;;4989160;28;20030;-79
2023/06/03 05:19:58;;;;;;;12.20;5.22;;;;;;;;;;4991896;28;20042;-79
2023/06/03 05:22:23;;;;;;;13.93;6.30;;;;;;;;;;4986823;28;20398;-79
2023/06/03 05:24:49;;;;;;;12.02;5.88;;;;;;;;;;4992899;28;20039;-79
2023/06/03 05:27:14;;;;;;;9.02;5.35;;;;;;;;;;4992484;28;20022;-79
2023/06/03 05:29:39;;;;;;;15.82;5.72;;;;;;;;;;5012688;28;20030;-79
2023/06/03 05:32:05;;;;;;;10.73;6.00;;;;;;;;;;4993205;28;20058;-80
2023/06/03 05:34:30;;;;;;;8.48;5.45;;;;;;;;;;4986987;28;20509;-79
2023/06/03 05:36:55;;;;;;;8.45;4.97;;;;;;;;;;4995730;28;20054;-79
2023/06/03 05:39:21;;;;;;;11.27;5.28;;;;;;;;;;4996944;28;20031;-79
2023/06/03 05:41:46;;;;;;;8.57;6.03;;;;;;;;;;4985683;28;20033;-79
2023/06/03 05:44:11;;;;;;;14.27;5.15;;;;;;;;;;4983601;28;20033;-79
2023/06/03 05:46:37;;;;;;;12.10;5.60;;;;;;;;;;4992476;28;20042;-79
2023/06/03 05:49:02;;;;;;;8.15;5.53;;;;;;;;;;4987703;28;20027;-79
2023/06/03 05:51:27;;;;;;;8.20;6.18;;;;;;;;;;4991153;28;20093;-79
2023/06/03 05:53:53;;;;;;;10.95;5.65;;;;;;;;;;4993455;28;20121;-79
2023/06/03 05:56:18;;;;;;;12.18;5.70;;;;;;;;;;4987844;28;20031;-78
2023/06/03 05:58:43;;;;;;;16.90;5.85;;;;;;;;;;4988932;28;20045;-79
2023/06/03 06:01:09;;;;;;;12.48;6.22;;;;;;;;;;4996387;28;20050;-79
2023/06/03 06:03:34;;;;;;;8.80;5.63;;;;;;;;;;4996308;28;20036;-79
2023/06/03 06:06:00;;;;;;;11.75;5.45;;;;;;;;;;4994735;28;20314;-79
2023/06/03 06:08:26;;;;;;;12.18;6.63;;;;;;;;;;5003064;28;20039;-79
2023/06/03 06:10:51;;;;;;;13.57;5.85;;;;;;;;;;4989866;28;20047;-79
2023/06/03 06:13:17;;;;;;;13.70;5.03;;;;;;;;;;4991866;28;20533;-79
2023/06/03 06:15:59;;;;;;;11.25;5.68;;;;;;;;;;4992738;28;20042;-79
2023/06/03 06:18:25;;;;;;;7.13;5.30;;;;;;;;;;4990960;28;20046;-79
2023/06/03 06:20:51;;;;;;;13.27;6.03;;;;;;;;;;4992418;28;20021;-79
2023/06/03 06:23:16;;;;;;;11.27;5.63;;;;;;;;;;4994107;28;20382;-79
2023/06/03 06:25:48;;;;;;;11.07;5.63;;;;;;;;;;4995231;28;20045;-79
2023/06/03 06:28:14;;;;;;;11.02;5.47;;;;;;;;;;4988632;28;20039;-80
2023/06/03 06:30:40;;;;;;;12.73;5.45;;;;;;;;;;4996825;28;20069;-80
2023/06/03 06:33:05;;;;;;;9.02;5.70;;;;;;;;;;4996405;28;20381;-79
2023/06/03 06:35:33;;;;;;;9.40;5.55;;;;;;;;;;4991255;28;20121;-79
2023/06/03 06:37:58;;;;;;;12.70;5.40;;;;;;;;;;4989932;28;20042;-80
2023/06/03 06:40:30;;;;;;;13.15;5.63;;;;;;;;;;4986677;28;20037;-79
2023/06/03 06:42:55;;;;;;;8.57;5.30;;;;;;;;;;4988533;28;20490;-79
2023/06/03 06:45:30;;;;;;;10.52;5.30;;;;;;;;;;4988646;28;20053;-80
2023/06/03 06:48:09;;;;;;;12.88;5.30;;;;;;;;;;4987019;28;20033;-80
2023/06/03 06:50:55;;;;;;;11.93;5.13;;;;;;;;;;4985220;28;20050;-80
2023/06/03 06:53:22;;;;;;;8.93;5.05;;;;;;;;;;4988724;28;20086;-80
2023/06/03 06:55:55;;;;;;;6.60;4.68;;;;;;;;;;4990457;28;20048;-80
2023/06/03 06:58:22;;;;;;;8.63;4.97;;;;;;;;;;4991827;28;20378;-80
2023/06/03 07:00:48;;;;;;;8.32;5.50;;;;;;;;;;4988392;28;20035;-80
2023/06/03 07:03:16;;;;;;;18.85;5.55;;;;;;;;;;4996544;28;20393;-80
2023/06/03 07:05:42;;;;;;;7.75;5.07;;;;;;;;;;4988104;28;20026;-80
2023/06/03 07:08:08;;;;;;;11.65;5.45;;;;;;;;;;4993515;28;20505;-80
2023/06/03 07:10:35;;;;;;;13.30;5.82;;;;;;;;;;4986891;28;20038;-80
2023/06/03 07:13:01;;;;;;;10.70;5.13;;;;;;;;;;4988665;28;20098;-80
2023/06/03 07:15:27;;;;;;;14.63;5.57;;;;;;;;;;4997947;28;20448;-80
2023/06/03 07:17:54;;;;;;;9.98;5.28;;;;;;;;;;4989858;28;20057;-80
2023/06/03 07:20:22;;;;;;;9.15;5.18;;;;;;;;;;4994895;28;20069;-80
2023/06/03 07:22:48;;;;;;;8.55;5.53;;;;;;;;;;4995912;28;20062;-80
2023/06/03 07:25:23;;;;;;;12.65;5.78;;;;;;;;;;4995412;28;20043;-80
2023/06/03 07:27:48;;;;;;;10.95;5.65;;;;;;;;;;4992758;28;20027;-80
2023/06/03 07:30:16;;;;;;;18.33;5.57;;;;;;;;;;4992228;28;20026;-80
2023/06/03 07:32:43;;;;;;;12.70;5.43;;;;;;;;;;5000657;28;20030;-80
2023/06/03 07:35:08;;;;;;;9.55;5.10;;;;;;;;;;5008729;28;20073;-81
2023/06/03 07:37:35;;;;;;;10.13;5.63;;;;;;;;;;5000230;28;20102;-79
2023/06/03 07:40:01;;;;;;;13.68;5.65;;;;;;;;;;5003067;28;20041;-80
2023/06/03 07:42:27;;;;;;;8.98;4.90;;;;;;;;;;5000775;28;20038;-79
2023/06/03 07:44:55;;;;;;;17.33;5.43;;;;;;;;;;4996795;28;20022;-80
2023/06/03 07:47:20;;;;;;;7.85;5.35;;;;;;;;;;4992032;28;20120;-80
2023/06/03 07:49:48;;;;;;;9.45;5.55;;;;;;;;;;4992351;28;20096;-80
2023/06/03 07:52:19;;;;;;;9.13;5.15;;;;;;;;;;4989775;28;20031;-80
2023/06/03 07:54:44;;;;;;;10.98;5.65;;;;;;;;;;4991584;28;20042;-80
2023/06/03 07:57:12;;;;;;;10.75;4.72;;;;;;;;;;4993527;28;20026;-80
2023/06/03 07:59:37;;;;;;;6.80;4.68;;;;;;;;;;5001231;28;20053;-80
2023/06/03 08:02:04;;;;;;;9.60;4.90;;;;;;;;;;4991604;28;20121;-80
2023/06/03 08:04:35;;;;;;;8.80;4.80;;;;;;;;;;4996158;28;20041;-80
2023/06/03 08:07:02;;;;;;;10.43;5.22;;;;;;;;;;5018257;28;20554;-80
2023/06/03 08:09:35;;;;;;;13.35;5.00;;;;;;;;;;4993432;28;20034;-81
2023/06/03 08:12:04;;;;;;;9.60;4.80;;;;;;;;;;4993151;28;20050;-80
2023/06/03 08:14:32;;;;;;;8.18;5.15;;;;;;;;;;4989454;28;20129;-80
2023/06/03 08:17:08;;;;;;;9.52;5.07;;;;;;;;;;4990405;28;20034;-80
2023/06/03 08:19:34;;;;;;;8.73;4.85;;;;;;;;;;4985312;28;20118;-80
2023/06/03 08:22:00;;;;;;;18.20;5.47;;;;;;;;;;4988225;28;20450;-80
2023/06/03 08:24:25;;;;;;;13.60;5.55;;;;;;;;;;4992948;28;20035;-80
2023/06/03 08:26:51;;;;;;;11.85;5.38;;;;;;;;;;4994319;28;20030;-80
2023/06/03 08:29:16;;;;;;;8.60;5.38;;;;;;;;;;4984297;28;20074;-80
2023/06/03 08:31:42;;;;;;;10.43;4.88;;;;;;;;;;4984941;28;20049;-80
2023/06/03 08:34:07;;;;;;;9.95;4.53;;;;;;;;;;4989857;28;20525;-80
2023/06/03 08:36:32;;;;;;;10.25;5.30;;;;;;;;;;4985237;28;20053;-80
2023/06/03 08:38:58;;;;;;;12.23;4.65;;;;;;;;;;4985184;28;20108;-80
2023/06/03 08:41:25;;;;;;;8.07;4.75;;;;;;;;;;4980322;28;20124;-80
2023/06/03 08:43:52;;;;;;;7.25;4.82;;;;;;;;;;4984152;28;20038;-79
2023/06/03 08:46:23;;;;;;;7.80;5.28;;;;;;;;;;4989331;28;20101;-80
2023/06/03 08:49:07;;;;;;;10.25;5.65;;;;;;;;;;4979872;28;20035;-80
2023/06/03 08:51:39;;;;;;;9.67;5.60;;;;;;;;;;4979875;28;20109;-80
2023/06/03 08:54:13;;;;;;;10.88;5.40;;;;;;;;;;4994636;28;20363;-80
2023/06/03 08:56:51;;;;;;;14.10;5.57;;;;;;;;;;4988256;28;20026;-80
2023/06/03 08:59:21;;;;;;;9.63;5.38;;;;;;;;;;4983397;28;20057;-80
2023/06/03 09:01:48;;;;;;;15.30;5.25;;;;;;;;;;4990292;28;20141;-81
2023/06/03 09:04:17;;;;;;;5.80;4.80;;;;;;;;;;4997865;28;20034;-80
2023/06/03 09:06:44;;;;;;;12.73;5.00;;;;;;;;;;4990649;28;20069;-80
2023/06/03 09:09:11;;;;;;;12.15;5.38;;;;;;;;;;4986351;28;20030;-80
2023/06/03 09:11:38;;;;;;;8.07;4.57;;;;;;;;;;4992535;28;20069;-80
2023/06/03 09:14:04;;;;;;;15.18;5.85;;;;;;;;;;4991277;28;20030;-80
2023/06/03 09:16:30;;;;;;;8.68;5.70;;;;;;;;;;4984188;28;20061;-80
2023/06/03 09:18:56;;;;;;;13.23;5.70;;;;;;;;;;4986284;28;20041;-79
2023/06/03 09:21:22;;;;;;;10.73;5.50;;;;;;;;;;4986247;28;20413;-80
2023/06/03 09:23:47;;;;;;;20.55;5.32;;;;;;;;;;4992987;28;20034;-80
2023/06/03 09:26:13;;;;;;;9.50;5.90;;;;;;;;;;5002906;28;20438;-80
2023/06/03 09:28:38;;;;;;;8.20;4.82;;;;;;;;;;4982180;28;20030;-80
2023/06/03 09:31:05;;;;;;;10.38;6.20;;;;;;;;;;4980150;28;20035;-80
2023/06/03 09:33:30;;;;;;;13.60;5.80;;;;;;;;;;4987978;28;20034;-80
2023/06/03 09:36:12;;;;;;;9.38;5.75;;;;;;;;;;5000423;28;20030;-80
2023/06/03 09:38:56;;;;;;;9.48;5.53;;;;;;;;;;4984074;28;20051;-80
2023/06/03 09:41:26;;;;;;;8.03;5.80;;;;;;;;;;4986565;28;20094;-80
2023/06/03 09:44:02;;;;;;;11.27;5.75;;;;;;;;;;4988391;28;20049;-80
2023/06/03 09:46:31;;;;;;;8.73;5.80;;;;;;;;;;4993663;28;20085;-80
2023/06/03 09:49:11;;;;;;;8.38;5.13;;;;;;;;;;4988301;28;20031;-80
2023/06/03 09:51:46;;;;;;;15.13;5.90;;;;;;;;;;4985167;28;20433;-80
2023/06/03 09:54:16;;;;;;;11.82;6.20;;;;;;;;;;4983311;28;20401;-79
2023/06/03 09:56:44;;;;;;;9.95;5.15;;;;;;;;;;4986572;28;20361;-80
2023/06/03 09:59:17;;;;;;;10.45;5.47;;;;;;;;;;4988402;28;20062;-80
2023/06/03 10:01:45;;;;;;;10.30;5.78;;;;;;;;;;4980936;28;20534;-80
2023/06/03 10:04:11;;;;;;;8.85;5.88;;;;;;;;;;4982083;28;20035;-80
2023/06/03 10:06:37;;;;;;;12.02;5.38;;;;;;;;;;4988110;28;20053;-81
2023/06/03 10:09:19;;;;;;;14.70;6.60;;;;;;;;;;4985843;28;20022;-80
2023/06/03 10:11:52;;;;;;;11.15;5.18;;;;;;;;;;4988700;28;20038;-80
2023/06/03 10:14:25;;;;;;;9.65;5.47;;;;;;;;;;4983886;28;20031;-80
2023/06/03 10:17:10;;;;;;;6.82;4.50;;;;;;;;;;4994058;28;20058;-80
2023/06/03 10:19:40;;;;;;;11.43;5.28;;;;;;;;;;5004304;28;20150;-80
2023/06/03 10:22:08;;;;;;;12.18;5.35;;;;;;;;;;4987739;28;20489;-81
2023/06/03 10:24:37;;;;;;;13.57;5.28;;;;;;;;;;4985544;28;20474;-79
2023/06/03 10:27:04;;;;;;;11.77;5.40;;;;;;;;;;4983667;28;20072;-79
2023/06/03 10:29:30;;;;;;;10.82;5.05;;;;;;;;;;4986043;28;20113;-79
2023/06/03 10:31:57;;;;;;;8.13;5.22;;;;;;;;;;4986892;28;20038;-82
2023/06/03 10:34:23;;;;;;;8.13;5.13;;;;;;;;;;4982027;28;20191;-79
2023/06/03 10:36:56;;;;;;;8.32;5.13;;;;;;;;;;4982997;28;20127;-80
2023/06/03 10:39:23;;;;;;;10.88;5.05;;;;;;;;;;4983156;28;20026;-80
2023/06/03 10:41:51;;;;;;;11.38;5.25;;;;;;;;;;4984270;28;20024;-79
2023/06/03 10:44:19;;;;;;;9.40;4.57;;;;;;;;;;4987806;28;20532;-79
2023/06/03 10:46:50;;;;;;;10.68;5.68;;;;;;;;;;4985217;28;20121;-79
2023/06/03 10:49:18;;;;;;;8.32;5.20;;;;;;;;;;4981288;28;20038;-79
2023/06/03 10:52:15;;;;;;;21.73;5.95;;;;;;;;;;4987767;28;20035;-79
2023/06/03 10:54:51;;;;;;;7.07;4.97;;;;;;;;;;4971733;28;20043;-78
2023/06/03 10:57:25;;;;;;;10.98;5.40;;;;;;;;;;4986992;28;20229;-78
2023/06/03 10:59:51;;;;;;;6.57;5.18;;;;;;;;;;4986503;28;20018;-79
2023/06/03 11:02:17;;;;;;;12.48;4.97;;;;;;;;;;4987372;28;20647;-79
2023/06/03 11:04:42;;;;;;;13.30;5.22;;;;;;;;;;4982309;28;20035;-79
2023/06/03 11:07:31;;;;;;;6.65;5.00;;;;;;;;;;4978503;28;20031;-79
2023/06/03 11:09:56;;;;;;;12.75;5.57;;;;;;;;;;4985562;28;20493;-79
2023/06/03 11:12:41;;;;;;;11.27;5.70;;;;;;;;;;4986532;28;20029;-79
2023/06/03 11:15:07;;;;;;;11.57;5.07;;;;;;;;;;4982299;28;20031;-79
2023/06/03 11:17:32;;;;;;;7.63;5.03;;;;;;;;;;4990349;28;20077;-79
2023/06/03 11:19:58;;;;;;;13.38;4.82;;;;;;;;;;4984700;28;20110;-80
2023/06/03 11:22:27;;;;;;;6.18;4.60;;;;;;;;;;4984492;28;20042;-79
2023/06/03 11:24:52;;;;;;;7.60;5.10;;;;;;;;;;4980440;28;20043;-79
2023/06/03 11:27:20;;;;;;;11.15;5.30;;;;;;;;;;4987775;28;20505;-79
2023/06/03 11:29:46;;;;;;;10.70;5.45;;;;;;;;;;4984100;28;20036;-80
2023/06/03 11:32:21;;;;;;;7.85;5.13;;;;;;;;;;4980782;28;20157;-79
2023/06/03 11:34:48;;;;;;;9.05;4.88;;;;;;;;;;4985100;28;20046;-79
2023/06/03 11:37:19;;;;;;;10.15;5.22;;;;;;;;;;4987471;28;20034;-79
2023/06/03 11:40:08;;;;;;;7.95;5.35;;;;;;;;;;4980703;28;20042;-79
2023/06/03 11:42:51;;;;;;;8.20;5.18;;;;;;;;;;4999030;28;20049;-79
2023/06/03 11:45:37;;;;;;;8.82;4.50;;;;;;;;;;4978676;28;20065;-79
2023/06/03 11:48:10;;;;;;;6.15;4.25;;;;;;;;;;4980395;28;20034;-78
2023/06/03 11:50:49;;;;;;;5.32;4.75;;;;;;;;;;4986049;28;20041;-79
2023/06/03 11:53:35;;;;;;;6.43;4.40;;;;;;;;;;4997131;28;20102;-79
2023/06/03 11:56:05;;;;;;;8.95;4.55;;;;;;;;;;4981747;28;20027;-79
2023/06/03 11:58:31;;;;;;;8.02;4.40;;;;;;;;;;4988924;28;20054;-79
2023/06/03 12:01:16;;;;;;;8.20;4.45;;;;;;;;;;4988314;28;20121;-79
2023/06/03 12:03:41;;;;;;;6.05;4.72;;;;;;;;;;4994944;28;20046;-78
2023/06/03 12:06:07;;;;;;;7.65;4.22;;;;;;;;;;4990000;28;20018;-78
2023/06/03 12:08:46;;;;;;;9.90;4.60;;;;;;;;;;4987579;28;20061;-79
2023/06/03 12:11:32;;;;;;;8.38;4.90;;;;;;;;;;4990829;28;20038;-79
2023/06/03 12:13:57;;;;;;;9.30;4.60;;;;;;;;;;4987978;28;20038;-78
2023/06/03 12:16:32;;;;;;;6.13;4.78;;;;;;;;;;4987140;28;20046;-78
2023/06/03 12:19:04;;;;;;;9.52;4.95;;;;;;;;;;4986028;28;20061;-78
2023/06/03 12:21:31;;;;;;;12.05;4.20;;;;;;;;;;4998998;28;20049;-78
2023/06/03 12:23:59;;;;;;;6.15;4.38;;;;;;;;;;4986677;28;20076;-79
2023/06/03 12:26:25;;;;;;;8.57;4.85;;;;;;;;;;4986611;28;20046;-79
2023/06/03 12:28:52;;;;;;;6.97;4.30;;;;;;;;;;4992732;28;20030;-79
2023/06/03 12:31:18;;;;;;;7.90;4.90;;;;;;;;;;4990705;28;20089;-79
2023/06/03 12:33:44;;;;;;;10.45;4.70;;;;;;;;;;5012189;28;20041;-79
2023/06/03 12:36:10;;;;;;;14.70;4.70;;;;;;;;;;4989649;28;20121;-79
2023/06/03 12:38:53;;;;;;;5.47;4.10;;;;;;;;;;4985341;28;20053;-79
2023/06/03 12:41:18;;;;;;;6.40;4.20;;;;;;;;;;4987410;28;20053;-79
2023/06/03 12:43:45;;;;;;;7.43;5.18;;;;;;;;;;4993170;28;20034;-79
2023/06/03 12:46:17;;;;;;;9.85;4.85;;;;;;;;;;4997924;28;20424;-79
2023/06/03 12:48:44;;;;;;;8.35;4.50;;;;;;;;;;4993663;28;20040;-79
2023/06/03 12:51:23;;;;;;;8.40;4.25;;;;;;;;;;4992086;28;20023;-79
2023/06/03 12:53:49;;;;;;;9.50;4.45;;;;;;;;;;4990008;28;20496;-80
2023/06/03 12:56:14;;;;;;;7.82;4.18;;;;;;;;;;4990579;28;20035;-79
2023/06/03 12:58:41;;;;;;;8.65;4.72;;;;;;;;;;4987212;28;20085;-79
2023/06/03 13:01:07;;;;;;;8.50;4.50;;;;;;;;;;5007949;28;20038;-79
2023/06/03 13:03:33;;;;;;;7.53;4.07;;;;;;;;;;4984173;28;20049;-80
2023/06/03 13:05:58;;;;;;;7.40;4.25;;;;;;;;;;4981600;28;20030;-79
2023/06/03 13:08:24;;;;;;;6.03;4.10;;;;;;;;;;4983564;28;20038;-79
2023/06/03 13:10:49;;;;;;;10.20;4.47;;;;;;;;;;4982355;28;20707;-79
2023/06/03 13:13:15;;;;;;;8.38;3.83;;;;;;;;;;4988957;28;20045;-79
2023/06/03 13:15:40;;;;;;;8.68;4.40;;;;;;;;;;4974098;28;20061;-79
2023/06/03 13:18:06;;;;;;;10.88;4.15;;;;;;;;;;4982033;28;20038;-79
2023/06/03 13:20:31;;;;;;;5.82;4.15;;;;;;;;;;4985045;28;20168;-78
2023/06/03 13:22:56;;;;;;;6.63;4.15;;;;;;;;;;4981327;28;20049;-79
2023/06/03 13:25:22;;;;;;;7.88;4.00;;;;;;;;;;4987570;28;20109;-79
2023/06/03 13:27:47;;;;;;;12.25;4.63;;;;;;;;;;4986874;28;20474;-79
2023/06/03 13:30:13;;;;;;;8.70;4.70;;;;;;;;;;4992434;28;20025;-79
2023/06/03 13:32:39;;;;;;;6.80;3.72;;;;;;;;;;4980823;28;20022;-79
2023/06/03 13:35:05;;;;;;;7.28;4.10;;;;;;;;;;4982641;28;20058;-79
2023/06/03 13:37:30;;;;;;;8.13;4.40;;;;;;;;;;4985316;28;21115;-79
2023/06/03 13:39:56;;;;;;;5.85;4.18;;;;;;;;;;4981894;28;20041;-78
2023/06/03 13:42:21;;;;;;;8.45;4.43;;;;;;;;;;5005465;28;20474;-79
2023/06/03 13:44:47;;;;;;;8.00;4.93;;;;;;;;;;4991088;28;20027;-79
2023/06/03 13:47:12;;;;;;;8.85;4.25;;;;;;;;;;4994257;28;20430;-79
2023/06/03 13:49:37;;;;;;;6.13;4.60;;;;;;;;;;4985541;28;20045;-79
2023/06/03 13:52:03;;;;;;;5.60;4.05;;;;;;;;;;4988491;28;20054;-79
2023/06/03 13:54:29;;;;;;;4.80;4.00;;;;;;;;;;4990138;28;20069;-79
2023/06/03 13:56:54;;;;;;;8.57;4.75;;;;;;;;;;4995613;28;20500;-79
2023/06/03 13:59:23;;;;;;;5.53;3.95;;;;;;;;;;4993188;28;20080;-79
2023/06/03 14:01:51;;;;;;;9.68;4.47;;;;;;;;;;4991799;28;20064;-78
2023/06/03 14:04:16;;;;;;;8.93;3.92;;;;;;;;;;4991310;28;20529;-78
2023/06/03 14:06:41;;;;;;;8.35;4.28;;;;;;;;;;4992471;28;20161;-79
2023/06/03 14:09:07;;;;;;;8.18;4.60;;;;;;;;;;4986968;28;20033;-78
2023/06/03 14:11:32;;;;;;;4.97;3.97;;;;;;;;;;4981417;28;20026;-78
2023/06/03 14:13:57;;;;;;;5.22;4.30;;;;;;;;;;4992291;28;20200;-79
2023/06/03 14:16:26;;;;;;;9.40;4.03;;;;;;;;;;4980487;28;20098;-78
2023/06/03 14:18:52;;;;;;;7.93;4.50;;;;;;;;;;4985720;28;20116;-78
2023/06/03 14:21:17;;;;;;;11.40;4.97;;;;;;;;;;4984629;28;20030;-78
2023/06/03 14:23:42;;;;;;;4.38;3.70;;;;;;;;;;4988561;28;20027;-78
2023/06/03 14:26:08;;;;;;;7.55;4.32;;;;;;;;;;4983111;28;20122;-78
2023/06/03 14:28:33;;;;;;;6.18;4.20;;;;;;;;;;4985707;28;20030;-78
2023/06/03 14:30:58;;;;;;;7.97;4.35;;;;;;;;;;4984251;28;20409;-79
2023/06/03 14:33:25;;;;;;;6.72;4.40;;;;;;;;;;4992921;28;20043;-78
2023/06/03 14:35:51;;;;;;;5.72;4.22;;;;;;;;;;4998626;28;20093;-79
2023/06/03 14:38:19;;;;;;;7.80;4.18;;;;;;;;;;5013279;28;20070;-78